createdAt,value
2022-07-29T00:01:01.862Z,101099.53
2022-07-29T00:03:29.619Z,101096.78
2022-07-29T00:05:56.229Z,101095.78
2022-07-29T00:08:22.724Z,101088.06
2022-07-29T00:10:50.336Z,101088.19
2022-07-29T00:13:16.778Z,101086.34
2022-07-29T00:15:43.283Z,101081.88
2022-07-29T00:18:09.726Z,101075.88
2022-07-29T00:20:36.178Z,101075.00
2022-07-29T00:23:02.648Z,101076.16
2022-07-29T00:25:29.160Z,101075.34
2022-07-29T00:27:55.622Z,101068.75
2022-07-29T00:30:22.209Z,101070.03
2022-07-29T00:32:48.680Z,101067.47
2022-07-29T00:35:33.413Z,101059.69
2022-07-29T00:38:00.115Z,101070.28
2022-07-29T00:40:28.545Z,101063.69
2022-07-29T00:42:55.035Z,101057.47
2022-07-29T00:45:22.902Z,101052.06
2022-07-29T00:47:49.379Z,101056.22
2022-07-29T00:50:15.816Z,101048.09
2022-07-29T00:52:42.648Z,101048.75
2022-07-29T00:55:11.267Z,101047.81
2022-07-29T00:57:37.932Z,101047.81
2022-07-29T01:00:05.757Z,101042.66
2022-07-29T01:02:32.389Z,101039.09
2022-07-29T01:04:58.991Z,101040.09
2022-07-29T01:07:28.736Z,101036.56
2022-07-29T01:09:55.197Z,101033.19
2022-07-29T01:12:28.311Z,101038.31
2022-07-29T01:14:55.141Z,101031.78
2022-07-29T01:17:24.641Z,101032.47
2022-07-29T01:20:03.166Z,101034.72
2022-07-29T01:22:35.695Z,101030.84
2022-07-29T01:25:35.567Z,101029.72
2022-07-29T01:28:05.618Z,101024.94
2022-07-29T01:30:32.078Z,101018.50
2022-07-29T01:33:01.072Z,101022.66
2022-07-29T01:35:33.070Z,101019.41
2022-07-29T01:38:24.153Z,101012.19
2022-07-29T01:40:52.732Z,101016.84
2022-07-29T01:43:26.698Z,101014.19
2022-07-29T01:46:04.575Z,101015.91
2022-07-29T01:48:42.018Z,101007.97
2022-07-29T01:51:09.069Z,101007.16
2022-07-29T01:53:37.943Z,101013.53
2022-07-29T01:56:04.928Z,101002.44
2022-07-29T01:58:32.385Z,101003.41
2022-07-29T02:00:59.490Z,100998.25
2022-07-29T02:03:26.009Z,100991.97
2022-07-29T02:05:52.473Z,100993.97
2022-07-29T02:08:19.358Z,100993.97
2022-07-29T02:10:45.817Z,100986.25
2022-07-29T02:13:12.451Z,100995.22
2022-07-29T02:15:39.110Z,100996.59
2022-07-29T02:18:10.516Z,100996.44
2022-07-29T02:20:37.008Z,100993.41
2022-07-29T02:23:03.772Z,100987.41
2022-07-29T02:25:37.460Z,100986.53
2022-07-29T02:28:05.374Z,100995.41
2022-07-29T02:30:31.824Z,100991.44
2022-07-29T02:32:58.272Z,100980.34
2022-07-29T02:35:24.757Z,100977.16
2022-07-29T02:38:11.189Z,100979.66
2022-07-29T02:40:39.120Z,100975.53
2022-07-29T02:43:07.180Z,100978.63
2022-07-29T02:45:33.964Z,100978.84
2022-07-29T02:48:00.418Z,100966.97
2022-07-29T02:50:33.565Z,100970.59
2022-07-29T02:53:04.345Z,100969.38
2022-07-29T02:55:31.879Z,100968.81
2022-07-29T02:58:18.813Z,100975.81
2022-07-29T03:00:45.260Z,100971.25
2022-07-29T03:03:16.425Z,100967.69
2022-07-29T03:05:42.874Z,100970.38
2022-07-29T03:08:10.481Z,100963.31
2022-07-29T03:10:38.282Z,100965.91
2022-07-29T03:13:05.263Z,100972.13
2022-07-29T03:15:31.693Z,100972.41
2022-07-29T03:17:58.260Z,100976.16
2022-07-29T03:20:24.867Z,100970.94
2022-07-29T03:22:51.387Z,100974.13
2022-07-29T03:25:19.038Z,100964.47
2022-07-29T03:27:45.699Z,100978.06
2022-07-29T03:30:12.859Z,100979.25
2022-07-29T03:32:44.969Z,100977.28
2022-07-29T03:35:11.472Z,100974.09
2022-07-29T03:37:37.912Z,100973.84
2022-07-29T03:40:06.318Z,100966.56
2022-07-29T03:42:34.487Z,100966.56
2022-07-29T03:45:06.507Z,100959.63
2022-07-29T03:47:43.580Z,100953.38
2022-07-29T03:50:17.769Z,100947.78
2022-07-29T03:52:45.615Z,100953.06
2022-07-29T03:55:12.294Z,100953.19
2022-07-29T03:57:38.764Z,100949.63
2022-07-29T04:00:06.385Z,100957.19
2022-07-29T04:02:33.241Z,100957.47
2022-07-29T04:05:00.053Z,100956.84
2022-07-29T04:07:26.644Z,100963.66
2022-07-29T04:09:53.146Z,100970.31
2022-07-29T04:12:19.603Z,100966.94
2022-07-29T04:14:46.078Z,100963.69
2022-07-29T04:17:12.514Z,100966.41
2022-07-29T04:19:39.063Z,100969.81
2022-07-29T04:22:05.485Z,100964.69
2022-07-29T04:24:32.006Z,100961.34
2022-07-29T04:26:58.461Z,100968.38
2022-07-29T04:29:24.982Z,100975.25
2022-07-29T04:31:51.513Z,100960.84
2022-07-29T04:34:18.758Z,100957.66
2022-07-29T04:36:46.082Z,100962.56
2022-07-29T04:39:12.536Z,100965.38
2022-07-29T04:41:39.041Z,100967.63
2022-07-29T04:44:06.821Z,100966.69
2022-07-29T04:46:34.085Z,100966.25
2022-07-29T04:49:00.625Z,100967.16
2022-07-29T04:51:27.188Z,100963.91
2022-07-29T04:53:53.623Z,100970.59
2022-07-29T04:56:20.169Z,100968.47
2022-07-29T04:58:46.919Z,100975.03
2022-07-29T05:01:13.495Z,100978.16
2022-07-29T05:03:39.977Z,100971.38
2022-07-29T05:06:06.395Z,100969.06
2022-07-29T05:08:32.884Z,100963.31
2022-07-29T05:10:59.324Z,100963.84
2022-07-29T05:13:45.878Z,100965.38
2022-07-29T05:16:14.033Z,100966.56
2022-07-29T05:18:40.695Z,100958.38
2022-07-29T05:21:07.259Z,100960.59
2022-07-29T05:23:33.747Z,100953.66
2022-07-29T05:26:00.254Z,100953.88
2022-07-29T05:28:26.707Z,100944.72
2022-07-29T05:30:53.221Z,100952.31
2022-07-29T05:33:34.969Z,100955.97
2022-07-29T05:36:03.187Z,100957.63
2022-07-29T05:38:29.723Z,100948.97
2022-07-29T05:40:58.606Z,100950.44
2022-07-29T05:43:25.166Z,100956.44
2022-07-29T05:45:51.644Z,100954.38
2022-07-29T05:48:18.104Z,100957.91
2022-07-29T05:50:44.576Z,100962.06
2022-07-29T05:53:20.039Z,100968.78
2022-07-29T05:55:47.830Z,100969.41
2022-07-29T05:58:14.279Z,100974.69
2022-07-29T06:00:41.031Z,100969.38
2022-07-29T06:03:07.508Z,100969.72
2022-07-29T06:05:33.975Z,100973.09
2022-07-29T06:08:00.432Z,100968.94
2022-07-29T06:10:27.798Z,100976.50
2022-07-29T06:12:54.417Z,100977.53
2022-07-29T06:15:20.908Z,100981.81
2022-07-29T06:18:00.496Z,100975.06
2022-07-29T06:20:32.010Z,100972.78
2022-07-29T06:22:58.928Z,100969.75
2022-07-29T06:25:25.388Z,100967.66
2022-07-29T06:27:51.839Z,100969.34
2022-07-29T06:30:18.299Z,100963.75
2022-07-29T06:32:44.866Z,100950.72
2022-07-29T06:35:38.797Z,100949.09
2022-07-29T06:37:59.541Z,100950.06
2022-07-29T06:40:45.244Z,100940.31
2022-07-29T06:43:11.800Z,100941.13
2022-07-29T06:45:42.025Z,100936.72
2022-07-29T06:48:08.934Z,100939.03
2022-07-29T06:50:35.548Z,100941.31
2022-07-29T06:53:02.031Z,100937.25
2022-07-29T06:55:28.475Z,100938.72
2022-07-29T06:57:54.996Z,100941.19
2022-07-29T07:00:21.464Z,100944.66
2022-07-29T07:02:48.058Z,100947.69
2022-07-29T07:05:14.618Z,100939.97
2022-07-29T07:07:41.056Z,100953.25
2022-07-29T07:10:07.943Z,100942.47
2022-07-29T07:12:34.598Z,100954.53
2022-07-29T07:15:01.172Z,100950.88
2022-07-29T07:17:27.616Z,100947.16
2022-07-29T07:19:54.078Z,100954.38
2022-07-29T07:22:20.527Z,100959.88
2022-07-29T07:24:47.024Z,100954.22
2022-07-29T07:27:13.477Z,100938.78
2022-07-29T07:29:42.129Z,100935.34
2022-07-29T07:32:10.798Z,100937.69
2022-07-29T07:34:38.818Z,100935.97
2022-07-29T07:37:05.776Z,100924.72
2022-07-29T07:39:32.299Z,100924.72
2022-07-29T07:41:59.384Z,100914.09
2022-07-29T07:44:25.866Z,100918.72
2022-07-29T07:46:52.422Z,100919.88
2022-07-29T07:49:19.649Z,100928.47
2022-07-29T07:51:50.638Z,100917.69
2022-07-29T07:54:18.448Z,100916.56
2022-07-29T07:56:49.855Z,100919.09
2022-07-29T07:59:19.413Z,100923.69
2022-07-29T08:01:48.089Z,100920.28
2022-07-29T08:04:27.302Z,100923.88
2022-07-29T08:06:55.701Z,100916.81
2022-07-29T08:09:29.407Z,100930.19
2022-07-29T08:11:57.650Z,100921.59
2022-07-29T08:14:24.135Z,100903.34
2022-07-29T08:16:50.753Z,100916.50
2022-07-29T08:19:17.269Z,100913.66
2022-07-29T08:21:43.795Z,100911.72
2022-07-29T08:24:28.883Z,100907.75
2022-07-29T08:26:55.362Z,100909.06
2022-07-29T08:29:21.836Z,100915.16
2022-07-29T08:31:48.445Z,100909.50
2022-07-29T08:34:15.182Z,100916.09
2022-07-29T08:36:41.625Z,100908.31
2022-07-29T08:39:08.495Z,100905.94
2022-07-29T08:41:34.953Z,100906.75
2022-07-29T08:44:01.418Z,100913.09
2022-07-29T08:46:27.876Z,100913.09
2022-07-29T08:48:54.451Z,100912.69
2022-07-29T08:51:21.373Z,100907.41
2022-07-29T08:53:51.862Z,100913.22
2022-07-29T08:56:19.400Z,100909.59
2022-07-29T08:58:49.865Z,100910.03
2022-07-29T09:01:22.720Z,100913.00
2022-07-29T09:04:02.434Z,100912.16
2022-07-29T09:06:32.417Z,100920.03
2022-07-29T09:08:59.469Z,100904.47
2022-07-29T09:11:26.209Z,100909.72
2022-07-29T09:13:52.632Z,100911.53
2022-07-29T09:16:31.862Z,100906.19
2022-07-29T09:19:11.687Z,100902.34
2022-07-29T09:22:00.274Z,100899.25
2022-07-29T09:24:38.474Z,100902.72
2022-07-29T09:27:11.676Z,100903.00
2022-07-29T09:29:39.090Z,100898.50
2022-07-29T09:32:07.809Z,100911.44
2022-07-29T09:34:34.493Z,100908.13
2022-07-29T09:37:00.963Z,100900.53
2022-07-29T09:39:32.053Z,100893.34
2022-07-29T09:42:00.023Z,100890.69
2022-07-29T09:44:26.581Z,100887.38
2022-07-29T09:47:00.432Z,100878.22
2022-07-29T09:49:27.505Z,100877.06
2022-07-29T09:52:14.280Z,100882.28
2022-07-29T09:54:40.773Z,100869.59
2022-07-29T09:57:13.526Z,100878.16
2022-07-29T09:59:50.115Z,100871.56
2022-07-29T10:02:23.662Z,100875.34
2022-07-29T10:04:50.484Z,100874.28
2022-07-29T10:07:16.933Z,100866.25
2022-07-29T10:09:55.296Z,100873.81
2022-07-29T10:12:21.811Z,100873.31
2022-07-29T10:14:48.268Z,100859.69
2022-07-29T10:17:14.767Z,100870.63
2022-07-29T10:19:42.894Z,100849.41
2022-07-29T10:22:09.995Z,100854.78
2022-07-29T10:24:37.239Z,100848.69
2022-07-29T10:27:05.209Z,100857.97
2022-07-29T10:29:35.082Z,100870.66
2022-07-29T10:32:23.247Z,100861.63
2022-07-29T10:34:49.685Z,100859.91
2022-07-29T10:37:25.865Z,100858.44
2022-07-29T10:40:45.654Z,100856.72
2022-07-29T10:43:39.084Z,100854.09
2022-07-29T10:46:08.870Z,100854.31
2022-07-29T10:48:35.947Z,100853.56
2022-07-29T10:51:06.849Z,100846.00
2022-07-29T10:53:53.425Z,100860.06
2022-07-29T10:56:30.698Z,100857.84
2022-07-29T10:59:19.038Z,100828.47
2022-07-29T11:01:53.414Z,100850.19
2022-07-29T11:04:47.128Z,100845.53
2022-07-29T11:07:17.310Z,100851.72
2022-07-29T11:09:46.322Z,100842.63
2022-07-29T11:12:37.772Z,100845.78
2022-07-29T11:15:07.037Z,100844.56
2022-07-29T11:17:53.362Z,100842.84
2022-07-29T11:20:38.946Z,100831.03
2022-07-29T11:23:42.686Z,100836.50
2022-07-29T11:26:21.042Z,100827.94
2022-07-29T11:28:52.619Z,100838.63
2022-07-29T11:31:39.254Z,100825.44
2022-07-29T11:34:29.648Z,100825.44
2022-07-29T11:37:12.462Z,100827.50
2022-07-29T11:39:54.080Z,100817.44
2022-07-29T11:42:41.745Z,100823.19
2022-07-29T11:45:41.380Z,100817.09
2022-07-29T11:48:05.246Z,100827.84
2022-07-29T11:50:45.602Z,100811.97
2022-07-29T11:53:13.299Z,100817.28
2022-07-29T11:55:50.985Z,100810.69
2022-07-29T11:58:25.202Z,100812.59
2022-07-29T12:00:52.873Z,100801.00
2022-07-29T12:03:34.784Z,100810.19
2022-07-29T12:06:02.190Z,100802.78
2022-07-29T12:08:28.732Z,100807.63
2022-07-29T12:10:55.231Z,100807.34
2022-07-29T12:13:22.453Z,100799.88
2022-07-29T12:16:00.148Z,100797.78
2022-07-29T12:18:27.759Z,100804.06
2022-07-29T12:21:03.072Z,100799.91
2022-07-29T12:23:35.034Z,100792.25
2022-07-29T12:26:05.536Z,100787.66
2022-07-29T12:28:38.286Z,100790.59
2022-07-29T12:31:04.749Z,100790.94
2022-07-29T12:33:32.334Z,100784.69
2022-07-29T12:36:09.411Z,100781.31
2022-07-29T12:38:37.087Z,100784.28
2022-07-29T12:41:04.680Z,100783.56
2022-07-29T12:43:31.432Z,100782.13
2022-07-29T12:45:58.369Z,100786.81
2022-07-29T12:48:37.774Z,100787.50
2022-07-29T12:51:05.341Z,100786.81
2022-07-29T12:53:31.782Z,100792.63
2022-07-29T12:56:00.487Z,100786.69
2022-07-29T12:58:48.161Z,100788.72
2022-07-29T13:01:18.930Z,100792.09
2022-07-29T13:03:57.340Z,100786.41
2022-07-29T13:06:34.697Z,100790.66
2022-07-29T13:09:07.977Z,100793.50
2022-07-29T13:11:35.411Z,100790.13
2022-07-29T13:14:06.562Z,100786.97
2022-07-29T13:16:33.813Z,100779.88
2022-07-29T13:19:13.046Z,100783.00
2022-07-29T13:21:39.910Z,100787.78
2022-07-29T13:24:07.408Z,100783.53
2022-07-29T13:26:33.990Z,100788.94
2022-07-29T13:29:00.419Z,100782.81
2022-07-29T13:31:27.064Z,100781.94
2022-07-29T13:33:53.666Z,100780.69
2022-07-29T13:36:21.354Z,100776.16
2022-07-29T13:38:47.793Z,100775.31
2022-07-29T13:41:14.279Z,100776.47
2022-07-29T13:43:40.777Z,100773.06
2022-07-29T13:46:07.278Z,100773.63
2022-07-29T13:48:33.844Z,100772.38
2022-07-29T13:51:00.359Z,100767.84
2022-07-29T13:53:27.382Z,100767.38
2022-07-29T13:55:54.129Z,100767.09
2022-07-29T13:58:20.584Z,100768.22
2022-07-29T14:00:47.622Z,100759.16
2022-07-29T14:03:14.073Z,100762.97
2022-07-29T14:05:40.515Z,100762.25
2022-07-29T14:08:07.056Z,100767.94
2022-07-29T14:10:33.573Z,100758.31
2022-07-29T14:13:00.082Z,100759.13
2022-07-29T14:15:26.589Z,100756.03
2022-07-29T14:17:53.069Z,100765.09
2022-07-29T14:20:19.786Z,100757.16
2022-07-29T14:22:46.221Z,100755.13
2022-07-29T14:25:15.126Z,100753.69
2022-07-29T14:27:42.520Z,100753.97
2022-07-29T14:30:09.790Z,100741.75
2022-07-29T14:32:36.290Z,100749.41
2022-07-29T14:35:02.829Z,100746.16
2022-07-29T14:37:39.859Z,100749.41
2022-07-29T14:40:07.806Z,100755.66
2022-07-29T14:42:34.354Z,100751.44
2022-07-29T14:45:01.171Z,100750.00
2022-07-29T14:47:27.809Z,100745.19
2022-07-29T14:49:54.405Z,100752.16
2022-07-29T14:52:20.986Z,100745.81
2022-07-29T14:54:47.437Z,100744.34
2022-07-29T14:57:13.957Z,100737.28
2022-07-29T14:59:40.394Z,100743.19
2022-07-29T15:02:06.920Z,100740.06
2022-07-29T15:04:37.974Z,100737.22
2022-07-29T15:07:05.962Z,100740.72
2022-07-29T15:09:32.427Z,100740.97
2022-07-29T15:12:04.979Z,100738.53
2022-07-29T15:14:32.609Z,100738.44
2022-07-29T15:16:59.246Z,100727.91
2022-07-29T15:19:27.031Z,100733.53
2022-07-29T15:21:54.825Z,100743.13
2022-07-29T15:24:23.192Z,100736.56
2022-07-29T15:26:49.707Z,100736.25
2022-07-29T15:29:16.183Z,100742.75
2022-07-29T15:31:42.965Z,100739.34
2022-07-29T15:34:09.491Z,100743.28
2022-07-29T15:36:52.164Z,100724.72
2022-07-29T15:39:19.955Z,100734.03
2022-07-29T15:41:46.686Z,100724.81
2022-07-29T15:44:13.246Z,100726.75
2022-07-29T15:46:58.367Z,100723.38
2022-07-29T15:49:47.788Z,100719.94
2022-07-29T15:52:17.746Z,100721.31
2022-07-29T15:54:44.224Z,100717.06
2022-07-29T15:57:10.714Z,100711.69
2022-07-29T15:59:37.245Z,100704.00
2022-07-29T16:02:03.959Z,100708.53
2022-07-29T16:04:30.601Z,100708.78
2022-07-29T16:06:57.492Z,100705.41
2022-07-29T16:09:24.375Z,100697.59
2022-07-29T16:11:53.504Z,100694.03
2022-07-29T16:14:20.494Z,100698.59
2022-07-29T16:16:47.210Z,100691.00
2022-07-29T16:19:13.805Z,100690.72
2022-07-29T16:21:41.801Z,100692.16
2022-07-29T16:24:09.014Z,100692.59
2022-07-29T16:26:35.674Z,100692.00
2022-07-29T16:29:02.219Z,100689.16
2022-07-29T16:31:29.041Z,100690.72
2022-07-29T16:33:56.115Z,100697.44
2022-07-29T16:36:22.737Z,100682.94
2022-07-29T16:38:49.473Z,100675.16
2022-07-29T16:41:15.964Z,100674.69
2022-07-29T16:43:42.670Z,100665.81
2022-07-29T16:46:09.535Z,100668.63
2022-07-29T16:48:40.550Z,100661.69
2022-07-29T16:51:07.895Z,100656.56
2022-07-29T16:53:34.543Z,100659.94
2022-07-29T16:56:01.192Z,100660.53
2022-07-29T16:58:27.640Z,100657.34
2022-07-29T17:00:54.510Z,100665.94
2022-07-29T17:03:21.070Z,100667.91
2022-07-29T17:05:52.181Z,100668.84
2022-07-29T17:08:20.623Z,100656.03
2022-07-29T17:10:47.305Z,100670.16
2022-07-29T17:13:13.758Z,100669.78
2022-07-29T17:15:42.413Z,100668.63
2022-07-29T17:18:12.311Z,100670.53
2022-07-29T17:20:41.023Z,100668.97
2022-07-29T17:23:07.655Z,100664.16
2022-07-29T17:25:34.314Z,100670.31
2022-07-29T17:28:01.320Z,100674.47
2022-07-29T17:30:28.517Z,100678.78
2022-07-29T17:32:55.133Z,100670.16
2022-07-29T17:35:40.330Z,100678.44
2022-07-29T17:38:06.968Z,100665.16
2022-07-29T17:40:33.550Z,100659.44
2022-07-29T17:43:00.029Z,100659.44
2022-07-29T17:45:26.588Z,100652.09
2022-07-29T17:48:13.618Z,100651.84
2022-07-29T17:50:40.090Z,100656.09
2022-07-29T17:53:13.972Z,100650.13
2022-07-29T17:55:45.303Z,100653.59
2022-07-29T17:58:11.995Z,100661.56
2022-07-29T18:00:38.597Z,100658.88
2022-07-29T18:03:05.232Z,100659.03
2022-07-29T18:05:31.716Z,100665.28
2022-07-29T18:07:58.866Z,100661.53
2022-07-29T18:10:25.542Z,100666.66
2022-07-29T18:12:52.410Z,100668.28
2022-07-29T18:15:18.880Z,100662.78
2022-07-29T18:17:56.440Z,100661.09
2022-07-29T18:20:24.051Z,100663.53
2022-07-29T18:22:51.149Z,100671.31
2022-07-29T18:25:17.728Z,100679.09
2022-07-29T18:27:44.261Z,100683.34
2022-07-29T18:30:10.884Z,100679.34
2022-07-29T18:32:37.514Z,100681.28
2022-07-29T18:35:05.822Z,100678.84
2022-07-29T18:38:02.259Z,100687.13
2022-07-29T18:40:20.990Z,100682.22
2022-07-29T18:42:47.749Z,100682.72
2022-07-29T18:45:19.565Z,100695.34
2022-07-29T18:47:47.593Z,100685.13
2022-07-29T18:50:14.699Z,100682.66
2022-07-29T18:52:41.464Z,100682.91
2022-07-29T18:55:08.507Z,100680.44
2022-07-29T18:57:54.061Z,100687.00
2022-07-29T19:00:22.493Z,100687.25
2022-07-29T19:02:49.334Z,100689.56
2022-07-29T19:05:15.926Z,100695.13
2022-07-29T19:07:42.447Z,100690.84
2022-07-29T19:10:09.450Z,100691.06
2022-07-29T19:12:36.015Z,100694.94
2022-07-29T19:15:03.300Z,100693.47
2022-07-29T19:17:30.059Z,100699.06
2022-07-29T19:19:56.617Z,100697.59
2022-07-29T19:22:23.268Z,100703.16
2022-07-29T19:24:51.912Z,100695.72
2022-07-29T19:27:18.856Z,100694.88
2022-07-29T19:32:13.491Z,100693.63
2022-07-29T19:35:10.231Z,100701.13
2022-07-29T19:37:37.376Z,100694.38
2022-07-29T19:40:04.892Z,100694.72
2022-07-29T19:42:31.347Z,100695.91
2022-07-29T19:44:57.820Z,100698.91
2022-07-29T19:47:24.295Z,100699.25
2022-07-29T19:49:50.746Z,100703.13
2022-07-29T19:52:17.306Z,100698.97
2022-07-29T19:54:43.809Z,100701.84
2022-07-29T19:57:10.264Z,100702.09
2022-07-29T19:59:37.247Z,100698.03
2022-07-29T20:02:03.974Z,100702.75
2022-07-29T20:04:30.601Z,100700.41
2022-07-29T20:07:01.365Z,100703.31
2022-07-29T20:09:28.442Z,100696.47
2022-07-29T20:11:55.082Z,100702.88
2022-07-29T20:14:21.783Z,100711.09
2022-07-29T20:16:48.419Z,100708.66
2022-07-29T20:19:14.985Z,100707.91
2022-07-29T20:21:41.562Z,100715.16
2022-07-29T20:24:08.696Z,100702.88
2022-07-29T20:26:35.487Z,100709.09
2022-07-29T20:29:05.088Z,100701.09
2022-07-29T20:31:32.374Z,100703.03
2022-07-29T20:33:58.988Z,100697.88
2022-07-29T20:36:25.567Z,100694.66
2022-07-29T20:38:52.076Z,100704.69
2022-07-29T20:41:18.643Z,100701.28
2022-07-29T20:43:45.530Z,100704.03
2022-07-29T20:46:12.147Z,100700.66
2022-07-29T20:48:39.922Z,100702.34
2022-07-29T20:51:06.509Z,100702.56
2022-07-29T20:53:33.762Z,100701.81
2022-07-29T20:56:00.474Z,100695.50
2022-07-29T20:58:27.003Z,100697.22
2022-07-29T21:00:53.615Z,100696.28
2022-07-29T21:03:20.254Z,100688.28
2022-07-29T21:05:46.891Z,100689.97
2022-07-29T21:08:13.522Z,100684.63
2022-07-29T21:10:40.043Z,100688.28
2022-07-29T21:13:06.507Z,100688.28
2022-07-29T21:15:33.411Z,100691.16
2022-07-29T21:18:05.507Z,100688.47
2022-07-29T21:20:32.001Z,100686.53
2022-07-29T21:22:58.551Z,100687.81
2022-07-29T21:25:26.952Z,100688.38
2022-07-29T21:28:12.235Z,100679.94
2022-07-29T21:30:38.791Z,100683.25
2022-07-29T21:33:05.366Z,100681.22
2022-07-29T21:36:10.303Z,100682.91
2022-07-29T21:38:19.239Z,100682.28
2022-07-29T21:40:46.626Z,100684.84
2022-07-29T21:43:13.835Z,100684.09
2022-07-29T21:45:40.604Z,100691.91
2022-07-29T21:48:07.185Z,100689.94
2022-07-29T21:50:34.266Z,100692.53
2022-07-29T21:53:00.739Z,100690.81
2022-07-29T21:55:27.555Z,100695.28
2022-07-29T21:57:55.811Z,100690.41
2022-07-29T22:00:22.386Z,100689.97
2022-07-29T22:02:48.849Z,100694.47
2022-07-29T22:05:15.386Z,100691.06
2022-07-29T22:07:54.313Z,100698.31
2022-07-29T22:10:23.920Z,100695.06
2022-07-29T22:12:52.047Z,100696.56
2022-07-29T22:15:18.576Z,100698.31
2022-07-29T22:17:45.106Z,100696.81
2022-07-29T22:20:11.957Z,100714.09
2022-07-29T22:22:38.560Z,100718.38
2022-07-29T22:25:05.656Z,100715.47
2022-07-29T22:27:32.162Z,100726.91
2022-07-29T22:29:58.662Z,100744.97
2022-07-29T22:32:25.171Z,100747.19
2022-07-29T22:34:51.730Z,100741.34
2022-07-29T22:37:18.182Z,100736.97
2022-07-29T22:39:44.837Z,100740.03
2022-07-29T22:42:11.286Z,100738.84
2022-07-29T22:44:37.802Z,100744.19
2022-07-29T22:47:04.672Z,100747.72
2022-07-29T22:49:31.209Z,100739.72
2022-07-29T22:51:57.783Z,100743.13
2022-07-29T22:54:24.220Z,100747.63
2022-07-29T22:56:50.769Z,100743.13
2022-07-29T22:59:17.191Z,100735.09
2022-07-29T23:01:44.022Z,100746.13
2022-07-29T23:04:10.612Z,100738.41
2022-07-29T23:06:37.215Z,100734.47
2022-07-29T23:09:03.872Z,100742.50
2022-07-29T23:11:30.351Z,100744.63
2022-07-29T23:13:56.801Z,100748.03
2022-07-29T23:16:26.310Z,100735.66
2022-07-29T23:18:53.771Z,100736.03
2022-07-29T23:21:20.910Z,100734.56
2022-07-29T23:23:48.472Z,100739.22
2022-07-29T23:26:16.914Z,100733.06
2022-07-29T23:28:44.350Z,100738.50
2022-07-29T23:31:10.959Z,100737.72
2022-07-29T23:33:37.478Z,100736.25
2022-07-29T23:36:04.047Z,100739.94
2022-07-29T23:38:30.558Z,100739.41
2022-07-29T23:40:58.554Z,100734.94
2022-07-29T23:43:25.130Z,100729.63
2022-07-29T23:45:51.662Z,100736.09
2022-07-29T23:48:20.793Z,100723.94
2022-07-29T23:50:47.292Z,100726.59
2022-07-29T23:53:13.786Z,100725.94
2022-07-29T23:55:40.415Z,100725.06
2022-07-29T23:58:06.880Z,100714.41
